createdAt,value
2022-12-24T00:01:08.955Z,65.93
2022-12-24T00:03:39.407Z,50.13
2022-12-24T00:06:08.958Z,49.43
2022-12-24T00:08:36.258Z,63.07
2022-12-24T00:11:03.732Z,42.33
2022-12-24T00:13:31.053Z,55.53
2022-12-24T00:15:58.391Z,58.20
2022-12-24T00:18:25.849Z,63.50
2022-12-24T00:20:53.388Z,40.90
2022-12-24T00:23:20.851Z,60.63
2022-12-24T00:25:48.576Z,46.70
2022-12-24T00:28:17.394Z,67.13
2022-12-24T00:30:44.679Z,50.33
2022-12-24T00:33:12.153Z,53.00
2022-12-24T00:35:41.075Z,51.40
2022-12-24T00:38:09.285Z,73.33
2022-12-24T00:40:37.009Z,57.43
2022-12-24T00:43:04.274Z,48.67
2022-12-24T00:45:31.903Z,50.13
2022-12-24T00:47:59.285Z,68.40
2022-12-24T00:50:26.665Z,66.20
2022-12-24T00:52:54.079Z,50.10
2022-12-24T00:55:21.365Z,68.07
2022-12-24T00:57:48.958Z,55.03
2022-12-24T01:00:17.917Z,74.20
2022-12-24T01:02:46.028Z,62.80
2022-12-24T01:05:13.548Z,61.73
2022-12-24T01:07:46.751Z,52.13
2022-12-24T01:10:17.021Z,46.07
2022-12-24T01:12:45.005Z,65.63
2022-12-24T01:15:14.639Z,38.20
2022-12-24T01:17:42.593Z,44.23
2022-12-24T01:20:14.924Z,51.27
2022-12-24T01:22:42.482Z,45.40
2022-12-24T01:25:10.366Z,50.03
2022-12-24T01:27:38.158Z,67.20
2022-12-24T01:30:07.749Z,84.27
2022-12-24T01:32:36.095Z,46.63
2022-12-24T01:35:03.786Z,38.30
2022-12-24T01:37:31.340Z,62.43
2022-12-24T01:40:17.362Z,52.70
2022-12-24T01:43:06.747Z,43.00
2022-12-24T01:45:42.699Z,41.80
2022-12-24T01:48:44.220Z,46.03
2022-12-24T01:51:28.629Z,57.20
2022-12-24T01:54:07.122Z,43.53
2022-12-24T01:56:36.918Z,40.03
2022-12-24T01:59:08.859Z,63.20
2022-12-24T02:01:37.618Z,54.77
2022-12-24T02:04:15.477Z,52.70
2022-12-24T02:06:43.449Z,46.17
2022-12-24T02:09:10.742Z,65.33
2022-12-24T02:11:41.250Z,63.43
2022-12-24T02:14:08.524Z,48.87
2022-12-24T02:16:53.899Z,46.27
2022-12-24T02:19:58.807Z,61.30
2022-12-24T02:22:57.815Z,49.93
2022-12-24T02:26:03.047Z,45.40
2022-12-24T02:28:47.305Z,45.17
2022-12-24T02:31:33.071Z,72.43
2022-12-24T02:34:16.703Z,56.23
2022-12-24T02:37:03.226Z,32.80
2022-12-24T02:39:40.186Z,39.07
2022-12-24T02:42:10.223Z,46.70
2022-12-24T02:45:05.734Z,53.80
2022-12-24T02:47:34.510Z,32.60
2022-12-24T02:50:03.182Z,32.63
2022-12-24T02:52:34.661Z,28.57
2022-12-24T02:55:23.046Z,41.53
2022-12-24T02:58:18.369Z,38.43
2022-12-24T03:01:28.589Z,44.23
2022-12-24T03:04:12.349Z,38.23
2022-12-24T03:06:56.600Z,42.57
2022-12-24T03:09:35.856Z,36.37
2022-12-24T03:12:39.881Z,68.93
2022-12-24T03:15:09.844Z,48.17
2022-12-24T03:17:38.944Z,40.40
2022-12-24T03:20:08.518Z,52.77
2022-12-24T03:22:36.402Z,49.33
2022-12-24T03:25:03.990Z,50.03
2022-12-24T03:27:33.968Z,51.00
2022-12-24T03:30:02.131Z,43.63
2022-12-24T03:32:32.246Z,42.83
2022-12-24T03:34:59.519Z,57.40
2022-12-24T03:37:27.131Z,47.83
2022-12-24T03:39:54.547Z,60.07
2022-12-24T03:42:22.061Z,36.50
2022-12-24T03:44:49.308Z,88.63
2022-12-24T03:47:16.545Z,37.23
2022-12-24T03:49:43.725Z,40.73
2022-12-24T03:52:10.915Z,46.80
2022-12-24T03:54:39.613Z,51.00
2022-12-24T03:57:06.836Z,51.40
2022-12-24T03:59:34.034Z,54.00
2022-12-24T04:02:01.421Z,63.40
2022-12-24T04:04:28.766Z,54.80
2022-12-24T04:06:55.969Z,57.87
2022-12-24T04:09:23.430Z,48.40
2022-12-24T04:11:50.947Z,55.17
2022-12-24T04:14:18.086Z,32.20
2022-12-24T04:16:46.061Z,47.37
2022-12-24T04:19:13.326Z,68.33
2022-12-24T04:21:40.564Z,50.13
2022-12-24T04:24:07.837Z,42.60
2022-12-24T04:26:35.024Z,35.23
2022-12-24T04:29:02.265Z,50.83
2022-12-24T04:31:29.514Z,50.10
2022-12-24T04:33:57.315Z,45.87
2022-12-24T04:36:24.627Z,36.23
2022-12-24T04:38:51.832Z,40.10
2022-12-24T04:41:24.279Z,47.33
2022-12-24T04:43:53.801Z,37.37
2022-12-24T04:46:23.678Z,50.47
2022-12-24T04:48:53.176Z,35.50
2022-12-24T04:51:21.379Z,48.00
2022-12-24T04:53:49.330Z,36.13
2022-12-24T04:56:19.616Z,49.83
2022-12-24T04:58:47.429Z,51.50
2022-12-24T05:01:21.432Z,45.23
2022-12-24T05:03:49.017Z,36.60
2022-12-24T05:06:20.044Z,42.97
2022-12-24T05:08:47.326Z,32.90
2022-12-24T05:11:15.546Z,35.33
2022-12-24T05:13:47.137Z,41.00
2022-12-24T05:16:17.190Z,31.63
2022-12-24T05:18:44.473Z,27.23
2022-12-24T05:21:15.407Z,41.60
2022-12-24T05:24:01.800Z,55.63
2022-12-24T05:26:37.837Z,32.00
2022-12-24T05:29:07.100Z,37.20
2022-12-24T05:31:34.978Z,29.00
2022-12-24T05:34:03.144Z,35.33
2022-12-24T05:36:30.915Z,54.50
2022-12-24T05:38:58.418Z,35.17
2022-12-24T05:41:26.365Z,33.10
2022-12-24T05:43:53.697Z,32.20
2022-12-24T05:46:22.249Z,47.60
2022-12-24T05:48:51.229Z,35.93
2022-12-24T05:51:22.138Z,34.97
2022-12-24T05:53:51.265Z,21.53
2022-12-24T05:56:23.667Z,36.43
2022-12-24T05:58:52.357Z,27.33
2022-12-24T06:01:21.191Z,25.57
2022-12-24T06:03:52.088Z,29.50
2022-12-24T06:06:24.789Z,29.20
2022-12-24T06:08:53.714Z,24.60
2022-12-24T06:11:25.120Z,32.07
2022-12-24T06:13:53.745Z,26.27
2022-12-24T06:16:22.367Z,29.43
2022-12-24T06:18:50.319Z,33.23
2022-12-24T06:21:18.204Z,24.93
2022-12-24T06:23:46.688Z,29.80
2022-12-24T06:26:17.169Z,29.87
2022-12-24T06:28:45.190Z,23.97
2022-12-24T06:31:15.469Z,29.23
2022-12-24T06:33:43.763Z,26.63
2022-12-24T06:36:17.756Z,31.40
2022-12-24T06:38:47.796Z,21.50
2022-12-24T06:41:16.852Z,21.33
2022-12-24T06:43:48.910Z,21.47
2022-12-24T06:46:17.187Z,21.70
2022-12-24T06:48:45.655Z,35.07
2022-12-24T06:51:14.540Z,22.83
2022-12-24T06:53:42.056Z,19.80
2022-12-24T06:56:12.637Z,26.37
2022-12-24T06:58:40.941Z,18.43
2022-12-24T07:01:10.976Z,24.97
2022-12-24T07:03:40.223Z,29.87
2022-12-24T07:06:11.034Z,32.67
2022-12-24T07:08:38.377Z,25.77
2022-12-24T07:11:05.791Z,22.13
2022-12-24T07:13:34.277Z,32.17
2022-12-24T07:16:03.692Z,29.50
2022-12-24T07:18:31.448Z,34.10
2022-12-24T07:20:59.591Z,34.70
2022-12-24T07:23:27.247Z,30.50
2022-12-24T07:25:55.035Z,21.47
2022-12-24T07:28:27.512Z,32.00
2022-12-24T07:30:57.132Z,30.80
2022-12-24T07:33:25.360Z,32.03
2022-12-24T07:36:00.708Z,26.80
2022-12-24T07:38:28.457Z,29.30
2022-12-24T07:40:56.517Z,32.40
2022-12-24T07:43:24.373Z,32.37
2022-12-24T07:45:55.564Z,48.80
2022-12-24T07:48:23.169Z,41.27
2022-12-24T07:50:52.524Z,42.70
2022-12-24T07:53:20.046Z,35.10
2022-12-24T07:55:47.871Z,25.00
2022-12-24T07:58:15.272Z,31.97
2022-12-24T08:00:42.488Z,43.63
2022-12-24T08:03:17.597Z,36.87
2022-12-24T08:05:45.332Z,29.00
2022-12-24T08:08:13.212Z,35.23
2022-12-24T08:10:42.257Z,38.40
2022-12-24T08:13:09.489Z,41.73
2022-12-24T08:15:37.264Z,47.60
2022-12-24T08:18:04.874Z,52.87
2022-12-24T08:20:32.285Z,38.43
2022-12-24T08:22:59.461Z,39.50
2022-12-24T08:25:30.223Z,30.30
2022-12-24T08:27:57.826Z,45.67
2022-12-24T08:30:25.324Z,26.50
2022-12-24T08:32:52.969Z,36.53
2022-12-24T08:35:20.578Z,35.67
2022-12-24T08:37:48.322Z,40.77
2022-12-24T08:40:15.707Z,31.43
2022-12-24T08:42:43.023Z,32.87
2022-12-24T08:45:11.466Z,35.27
2022-12-24T08:47:39.105Z,30.70
2022-12-24T08:50:07.577Z,33.43
2022-12-24T08:52:34.795Z,43.90
2022-12-24T08:55:02.327Z,30.40
2022-12-24T08:57:29.999Z,32.20
2022-12-24T08:59:57.201Z,31.80
2022-12-24T09:02:24.793Z,31.40
2022-12-24T09:04:52.616Z,23.13
2022-12-24T09:07:19.782Z,32.60
2022-12-24T09:09:47.271Z,27.50
2022-12-24T09:12:14.435Z,24.73
2022-12-24T09:14:41.647Z,31.37
2022-12-24T09:17:09.208Z,28.70
2022-12-24T09:19:36.495Z,26.70
2022-12-24T09:22:03.769Z,36.37
2022-12-24T09:24:31.039Z,33.67
2022-12-24T09:26:59.179Z,32.87
2022-12-24T09:29:26.346Z,30.10
2022-12-24T09:31:55.127Z,37.60
2022-12-24T09:34:29.835Z,27.63
2022-12-24T09:36:57.601Z,29.90
2022-12-24T09:39:24.755Z,24.80
2022-12-24T09:42:29.634Z,24.90
2022-12-24T09:45:01.200Z,36.97
2022-12-24T09:47:39.667Z,27.87
2022-12-24T09:50:40.241Z,26.10
2022-12-24T09:53:27.342Z,43.70
2022-12-24T09:55:59.812Z,33.83
2022-12-24T09:58:33.583Z,23.70
2022-12-24T10:01:00.998Z,29.97
2022-12-24T10:03:28.313Z,21.17
2022-12-24T10:06:29.607Z,21.80
2022-12-24T10:09:19.496Z,27.03
2022-12-24T10:12:01.821Z,19.90
2022-12-24T10:14:34.755Z,41.57
2022-12-24T10:17:20.774Z,32.00
2022-12-24T10:19:52.976Z,34.70
2022-12-24T10:22:28.647Z,19.47
2022-12-24T10:24:58.567Z,26.87
2022-12-24T10:27:32.835Z,32.00
2022-12-24T10:30:04.774Z,25.53
2022-12-24T10:32:35.161Z,25.47
2022-12-24T10:35:15.897Z,27.40
2022-12-24T10:37:45.098Z,18.03
2022-12-24T10:40:27.856Z,35.13
2022-12-24T10:42:55.156Z,18.80
2022-12-24T10:45:25.731Z,16.97
2022-12-24T10:47:58.588Z,22.00
2022-12-24T10:50:39.403Z,24.83
2022-12-24T10:53:21.358Z,24.60
2022-12-24T10:55:49.153Z,21.47
2022-12-24T10:58:19.548Z,25.40
2022-12-24T11:00:52.035Z,25.80
2022-12-24T11:03:19.267Z,23.50
2022-12-24T11:05:46.828Z,23.83
2022-12-24T11:08:13.953Z,18.30
2022-12-24T11:10:55.089Z,22.53
2022-12-24T11:13:48.204Z,21.70
2022-12-24T11:16:48.410Z,29.43
2022-12-24T11:19:18.896Z,22.27
2022-12-24T11:21:46.242Z,22.90
2022-12-24T11:24:13.886Z,24.30
2022-12-24T11:26:43.197Z,19.77
2022-12-24T11:29:26.716Z,23.87
2022-12-24T11:32:17.016Z,21.97
2022-12-24T11:34:44.558Z,17.57
2022-12-24T11:37:20.402Z,23.33
2022-12-24T11:39:56.855Z,15.27
2022-12-24T11:42:34.597Z,27.60
2022-12-24T11:45:07.284Z,15.53
2022-12-24T11:47:40.271Z,17.13
2022-12-24T11:50:26.385Z,13.47
2022-12-24T11:53:02.744Z,14.90
2022-12-24T11:55:41.982Z,14.93
2022-12-24T11:58:19.955Z,13.30
2022-12-24T12:00:49.202Z,15.13
2022-12-24T12:03:32.159Z,15.90
2022-12-24T12:06:03.330Z,16.53
2022-12-24T12:08:32.332Z,15.33
2022-12-24T12:11:01.731Z,14.10
2022-12-24T12:13:33.389Z,15.67
2022-12-24T12:16:16.897Z,15.13
2022-12-24T12:19:03.399Z,14.10
2022-12-24T12:21:42.487Z,9.93
2022-12-24T12:24:31.624Z,17.40
2022-12-24T12:27:20.238Z,16.90
2022-12-24T12:29:54.171Z,16.87
2022-12-24T12:32:59.068Z,19.70
2022-12-24T12:35:38.097Z,16.30
2022-12-24T12:38:13.027Z,17.33
2022-12-24T12:41:05.942Z,12.73
2022-12-24T12:43:48.957Z,16.17
2022-12-24T12:46:38.920Z,12.23
2022-12-24T12:49:19.206Z,13.23
2022-12-24T12:52:12.690Z,14.47
2022-12-24T12:54:52.489Z,17.37
2022-12-24T12:57:25.925Z,13.53
2022-12-24T13:00:09.477Z,12.97
2022-12-24T13:02:45.668Z,13.00
2022-12-24T13:05:31.289Z,16.87
2022-12-24T13:08:01.302Z,14.23
2022-12-24T13:10:53.823Z,11.20
2022-12-24T13:13:34.272Z,11.20
2022-12-24T13:16:11.488Z,18.00
2022-12-24T13:18:57.148Z,11.13
2022-12-24T13:21:28.126Z,10.63
2022-12-24T13:24:26.337Z,16.87
2022-12-24T13:27:20.534Z,16.50
2022-12-24T13:30:02.345Z,16.40
2022-12-24T13:32:34.426Z,13.17
2022-12-24T13:35:24.074Z,15.77
2022-12-24T13:37:52.146Z,13.20
2022-12-24T13:40:24.487Z,6.50
2022-12-24T13:43:13.041Z,13.73
2022-12-24T13:45:40.288Z,19.70
2022-12-24T13:48:07.961Z,16.77
2022-12-24T13:50:39.789Z,21.13
2022-12-24T13:53:23.540Z,16.87
2022-12-24T13:55:56.714Z,12.03
2022-12-24T13:58:25.501Z,18.03
2022-12-24T14:00:59.109Z,12.00
2022-12-24T14:03:47.308Z,18.70
2022-12-24T14:06:20.580Z,15.63
2022-12-24T14:08:52.023Z,15.93
2022-12-24T14:11:21.765Z,12.23
2022-12-24T14:13:48.961Z,12.60
2022-12-24T14:16:25.629Z,20.67
2022-12-24T14:19:09.926Z,12.50
2022-12-24T14:22:04.611Z,16.70
2022-12-24T14:24:35.628Z,22.63
2022-12-24T14:27:16.715Z,21.13
2022-12-24T14:30:05.738Z,18.93
2022-12-24T14:32:38.873Z,14.97
2022-12-24T14:35:34.857Z,20.60
2022-12-24T14:38:12.486Z,15.40
2022-12-24T14:41:12.809Z,15.63
2022-12-24T14:44:07.730Z,19.03
2022-12-24T14:47:02.153Z,15.70
2022-12-24T14:50:10.070Z,20.17
2022-12-24T14:53:05.465Z,21.80
2022-12-24T14:55:44.441Z,21.43
2022-12-24T14:58:26.911Z,19.80
2022-12-24T15:01:03.792Z,25.10
2022-12-24T15:03:33.001Z,17.13
2022-12-24T15:06:06.754Z,18.93
2022-12-24T15:08:45.000Z,21.53
2022-12-24T15:11:19.555Z,29.93
2022-12-24T15:13:53.806Z,22.60
2022-12-24T15:16:28.120Z,21.77
2022-12-24T15:19:00.264Z,21.37
2022-12-24T15:21:33.785Z,16.07
2022-12-24T15:24:01.554Z,20.00
2022-12-24T15:26:31.483Z,24.00
2022-12-24T15:29:03.621Z,29.30
2022-12-24T15:31:32.038Z,19.47
2022-12-24T15:34:00.138Z,19.30
2022-12-24T15:36:38.951Z,32.33
2022-12-24T15:39:08.289Z,18.77
2022-12-24T15:42:02.369Z,33.13
2022-12-24T15:44:36.806Z,19.20
2022-12-24T15:47:07.151Z,27.40
2022-12-24T15:49:36.230Z,24.83
2022-12-24T15:52:14.449Z,26.10
2022-12-24T15:54:52.115Z,24.80
2022-12-24T15:57:31.988Z,30.27
2022-12-24T16:00:02.160Z,31.60
2022-12-24T16:02:39.698Z,26.03
2022-12-24T16:05:32.762Z,25.20
2022-12-24T16:08:16.443Z,23.70
2022-12-24T16:10:46.577Z,25.10
2022-12-24T16:13:16.879Z,29.20
2022-12-24T16:15:54.952Z,24.50
2022-12-24T16:18:44.469Z,28.23
2022-12-24T16:21:29.739Z,25.40
2022-12-24T16:24:06.144Z,19.60
2022-12-24T16:26:35.168Z,24.87
2022-12-24T16:29:03.494Z,30.37
2022-12-24T16:31:35.752Z,19.70
2022-12-24T16:34:04.827Z,15.50
2022-12-24T16:36:32.900Z,30.90
2022-12-24T16:39:18.913Z,15.50
2022-12-24T16:42:05.161Z,18.10
2022-12-24T16:44:32.418Z,16.27
2022-12-24T16:47:00.878Z,13.17
2022-12-24T16:49:29.079Z,13.73
2022-12-24T16:51:57.144Z,18.47
2022-12-24T16:54:24.374Z,17.73
2022-12-24T16:56:51.565Z,18.70
2022-12-24T16:59:22.880Z,12.43
2022-12-24T17:01:51.074Z,16.13
2022-12-24T17:04:19.018Z,14.83
2022-12-24T17:06:49.600Z,12.10
2022-12-24T17:09:17.741Z,21.10
2022-12-24T17:11:45.005Z,14.67
2022-12-24T17:14:19.810Z,16.73
2022-12-24T17:16:48.040Z,14.30
2022-12-24T17:19:15.380Z,16.77
2022-12-24T17:21:42.541Z,13.90
2022-12-24T17:24:09.886Z,14.53
2022-12-24T17:26:37.094Z,19.17
2022-12-24T17:29:05.193Z,16.90
2022-12-24T17:31:33.984Z,16.20
2022-12-24T17:34:01.327Z,20.53
2022-12-24T17:36:28.800Z,12.30
2022-12-24T17:38:56.065Z,13.23
2022-12-24T17:41:23.270Z,12.60
2022-12-24T17:43:52.099Z,11.30
2022-12-24T17:46:22.385Z,14.70
2022-12-24T17:48:51.162Z,10.60
2022-12-24T17:51:21.500Z,12.17
2022-12-24T17:53:49.237Z,13.10
2022-12-24T17:56:18.164Z,10.00
2022-12-24T17:58:46.691Z,17.53
2022-12-24T18:01:16.969Z,22.43
2022-12-24T18:03:45.515Z,12.13
2022-12-24T18:06:13.978Z,20.80
2022-12-24T18:08:43.247Z,14.03
2022-12-24T18:11:18.208Z,13.70
2022-12-24T18:13:46.002Z,14.60
2022-12-24T18:16:38.580Z,12.93
2022-12-24T18:19:08.733Z,14.43
2022-12-24T18:21:36.090Z,10.77
2022-12-24T18:24:04.069Z,10.77
2022-12-24T18:26:33.122Z,9.67
2022-12-24T18:29:02.303Z,9.90
2022-12-24T18:31:30.058Z,12.70
2022-12-24T18:33:57.880Z,16.13
2022-12-24T18:36:25.387Z,19.73
2022-12-24T18:38:52.854Z,12.43
2022-12-24T18:41:23.573Z,14.73
2022-12-24T18:43:51.242Z,10.23
2022-12-24T18:46:27.415Z,17.37
2022-12-24T18:48:56.990Z,13.47
2022-12-24T18:51:26.785Z,10.93
2022-12-24T18:53:54.555Z,10.43
2022-12-24T18:56:24.235Z,11.13
2022-12-24T18:59:00.280Z,16.20
2022-12-24T19:01:30.944Z,11.27
2022-12-24T19:04:00.044Z,14.53
2022-12-24T19:06:27.633Z,16.33
2022-12-24T19:08:57.907Z,13.03
2022-12-24T19:11:27.807Z,14.07
2022-12-24T19:13:55.378Z,18.47
2022-12-24T19:16:22.788Z,19.27
2022-12-24T19:18:50.440Z,14.57
2022-12-24T19:21:18.431Z,18.17
2022-12-24T19:23:46.432Z,12.90
2022-12-24T19:26:15.439Z,19.40
2022-12-24T19:28:43.627Z,15.43
2022-12-24T19:31:14.423Z,13.80
2022-12-24T19:34:03.987Z,17.23
2022-12-24T19:36:31.202Z,13.40
2022-12-24T19:38:59.227Z,16.47
2022-12-24T19:41:28.256Z,14.87
2022-12-24T19:43:58.806Z,12.30
2022-12-24T19:46:31.444Z,11.60
2022-12-24T19:49:01.343Z,11.23
2022-12-24T19:51:28.952Z,20.23
2022-12-24T19:53:59.729Z,15.33
2022-12-24T19:56:30.127Z,13.90
2022-12-24T19:58:58.220Z,16.80
2022-12-24T20:01:28.553Z,19.23
2022-12-24T20:03:56.556Z,17.27
2022-12-24T20:06:26.886Z,15.73
2022-12-24T20:08:59.688Z,19.47
2022-12-24T20:11:27.192Z,21.00
2022-12-24T20:13:59.159Z,17.57
2022-12-24T20:16:29.358Z,15.80
2022-12-24T20:19:03.478Z,15.57
2022-12-24T20:21:31.403Z,16.30
2022-12-24T20:23:59.213Z,18.23
2022-12-24T20:26:29.436Z,20.57
2022-12-24T20:28:56.997Z,12.87
2022-12-24T20:31:29.743Z,20.60
2022-12-24T20:33:58.332Z,17.97
2022-12-24T20:36:26.791Z,16.83
2022-12-24T20:38:55.108Z,13.83
2022-12-24T20:41:24.087Z,16.53
2022-12-24T20:43:52.058Z,13.63
2022-12-24T20:46:25.535Z,14.07
2022-12-24T20:48:53.316Z,18.27
2022-12-24T20:51:24.901Z,10.00
2022-12-24T20:53:55.039Z,12.47
2022-12-24T20:56:22.717Z,12.63
2022-12-24T20:58:50.711Z,12.00
2022-12-24T21:01:27.099Z,14.47
2022-12-24T21:03:55.805Z,14.63
2022-12-24T21:06:24.448Z,12.23
2022-12-24T21:08:53.945Z,12.10
2022-12-24T21:11:40.825Z,14.13
2022-12-24T21:14:08.726Z,13.53
2022-12-24T21:16:37.846Z,19.03
2022-12-24T21:19:06.607Z,17.80
2022-12-24T21:21:34.870Z,12.50
2022-12-24T21:24:03.125Z,15.63
2022-12-24T21:26:31.122Z,14.43
2022-12-24T21:28:58.430Z,10.03
2022-12-24T21:31:25.751Z,12.90
2022-12-24T21:33:53.169Z,17.57
2022-12-24T21:36:20.959Z,16.50
2022-12-24T21:38:48.242Z,18.73
2022-12-24T21:41:19.447Z,12.97
2022-12-24T21:43:46.976Z,15.23
2022-12-24T21:46:18.413Z,18.50
2022-12-24T21:49:05.380Z,17.50
2022-12-24T21:51:32.869Z,14.73
2022-12-24T21:54:27.130Z,16.47
2022-12-24T21:57:16.561Z,17.73
2022-12-24T21:59:44.724Z,18.87
2022-12-24T22:02:14.734Z,13.47
2022-12-24T22:04:42.991Z,17.57
2022-12-24T22:07:43.130Z,16.77
2022-12-24T22:10:30.566Z,17.23
2022-12-24T22:13:06.011Z,19.70
2022-12-24T22:15:34.609Z,14.87
2022-12-24T22:18:03.538Z,16.97
2022-12-24T22:20:31.185Z,12.87
2022-12-24T22:22:58.363Z,17.47
2022-12-24T22:25:25.529Z,22.30
2022-12-24T22:27:53.061Z,20.90
2022-12-24T22:30:20.766Z,20.10
2022-12-24T22:32:48.083Z,17.97
2022-12-24T22:35:15.745Z,21.67
2022-12-24T22:37:42.906Z,21.43
2022-12-24T22:40:11.199Z,21.87
2022-12-24T22:42:41.097Z,15.40
2022-12-24T22:45:08.973Z,20.57
2022-12-24T22:47:36.240Z,20.10
2022-12-24T22:50:04.334Z,19.93
2022-12-24T22:52:33.338Z,18.90
2022-12-24T22:55:01.473Z,17.50
2022-12-24T22:57:28.801Z,25.23
2022-12-24T22:59:55.996Z,17.63
2022-12-24T23:02:28.164Z,16.00
2022-12-24T23:04:56.441Z,27.67
2022-12-24T23:07:24.677Z,19.93
2022-12-24T23:09:51.915Z,22.30
2022-12-24T23:12:39.078Z,24.17
2022-12-24T23:15:06.866Z,23.17
2022-12-24T23:17:34.075Z,25.77
2022-12-24T23:20:03.107Z,21.90
2022-12-24T23:22:31.297Z,21.20
2022-12-24T23:24:58.474Z,20.53
2022-12-24T23:27:25.693Z,21.47
2022-12-24T23:29:52.862Z,22.30
2022-12-24T23:32:20.053Z,23.13
2022-12-24T23:34:47.391Z,26.17
2022-12-24T23:37:14.809Z,26.27
2022-12-24T23:39:42.032Z,30.07
2022-12-24T23:42:09.177Z,26.57
2022-12-24T23:44:36.394Z,41.00
2022-12-24T23:47:04.340Z,29.53
2022-12-24T23:49:31.706Z,22.57
2022-12-24T23:51:58.880Z,30.73
2022-12-24T23:54:26.268Z,23.73
2022-12-24T23:56:53.534Z,31.70
2022-12-24T23:59:20.827Z,19.60
